createdAt,value
2019-05-07T00:01:51.517Z,150371.25
2019-05-07T00:04:22.462Z,150355.98
2019-05-07T00:06:52.872Z,150324.22
2019-05-07T00:09:23.486Z,150362.36
2019-05-07T00:11:53.599Z,150306.47
2019-05-07T00:14:24.763Z,150343.30
2019-05-07T00:16:54.450Z,150368.69
2019-05-07T00:19:24.387Z,150389.00
2019-05-07T00:21:54.484Z,150383.94
2019-05-07T00:24:24.210Z,150362.36
2019-05-07T00:26:53.867Z,150361.06
2019-05-07T00:29:24.312Z,150378.86
2019-05-07T00:31:54.092Z,150397.94
2019-05-07T00:34:25.391Z,150387.75
2019-05-07T00:37:02.377Z,150396.63
2019-05-07T00:39:50.029Z,150383.94
2019-05-07T00:42:27.476Z,150368.69
2019-05-07T00:45:13.069Z,150353.47
2019-05-07T00:47:30.156Z,150381.38
2019-05-07T00:50:03.330Z,150355.98
2019-05-07T00:52:33.631Z,150383.94
2019-05-07T00:55:03.894Z,150331.86
2019-05-07T00:57:33.821Z,150297.59
2019-05-07T01:00:05.201Z,150336.92
2019-05-07T01:02:34.845Z,150339.48
2019-05-07T01:05:05.398Z,150362.36
2019-05-07T01:07:35.061Z,150358.55
2019-05-07T01:10:06.995Z,150279.78
2019-05-07T01:12:36.651Z,150279.78
2019-05-07T01:15:07.854Z,150336.92
2019-05-07T01:17:37.521Z,150310.28
2019-05-07T01:20:07.241Z,150312.78
2019-05-07T01:22:37.008Z,150303.91
2019-05-07T01:25:08.020Z,150326.78
2019-05-07T01:27:37.679Z,150329.34
2019-05-07T01:30:09.028Z,150343.30
2019-05-07T01:32:42.431Z,150275.97
2019-05-07T01:35:13.421Z,150312.78
2019-05-07T01:37:43.093Z,150295.03
2019-05-07T01:40:12.823Z,150296.28
2019-05-07T01:42:42.547Z,150343.30
2019-05-07T01:45:13.905Z,150312.78
2019-05-07T01:47:43.627Z,150307.72
2019-05-07T01:50:13.467Z,150289.97
2019-05-07T01:52:43.080Z,150310.28
2019-05-07T01:55:13.068Z,150274.72
2019-05-07T01:57:42.717Z,150297.59
2019-05-07T02:00:13.229Z,150251.84
2019-05-07T02:02:44.594Z,150218.84
2019-05-07T02:05:32.641Z,150277.28
2019-05-07T02:08:04.213Z,150259.47
2019-05-07T02:10:35.136Z,150275.97
2019-05-07T02:13:04.870Z,150274.72
2019-05-07T02:15:34.577Z,150234.09
2019-05-07T02:18:04.488Z,150244.22
2019-05-07T02:20:34.122Z,150292.47
2019-05-07T02:23:03.789Z,150278.53
2019-05-07T02:25:33.432Z,150300.09
2019-05-07T02:28:04.702Z,150307.72
2019-05-07T02:30:35.328Z,150309.03
2019-05-07T02:33:05.094Z,150306.47
2019-05-07T02:35:34.824Z,150312.78
2019-05-07T02:38:06.182Z,150321.72
2019-05-07T02:40:39.054Z,150325.53
2019-05-07T02:43:08.764Z,150300.09
2019-05-07T02:45:43.778Z,150281.09
2019-05-07T02:48:13.509Z,150234.09
2019-05-07T02:50:54.011Z,150269.66
2019-05-07T02:53:25.430Z,150254.41
2019-05-07T02:55:56.717Z,150237.91
2019-05-07T02:58:26.379Z,150236.66
2019-05-07T03:00:56.504Z,150264.53
2019-05-07T03:03:26.165Z,150225.22
2019-05-07T03:05:55.890Z,150213.78
2019-05-07T03:08:27.589Z,150147.73
2019-05-07T03:10:57.129Z,150220.09
2019-05-07T03:13:26.790Z,150231.53
2019-05-07T03:15:56.947Z,150150.30
2019-05-07T03:18:26.667Z,150249.34
2019-05-07T03:20:57.977Z,150128.73
2019-05-07T03:23:34.104Z,150194.72
2019-05-07T03:26:13.976Z,150232.84
2019-05-07T03:28:53.703Z,150185.84
2019-05-07T03:31:39.645Z,150231.53
2019-05-07T03:34:16.215Z,150240.41
2019-05-07T03:36:49.347Z,150209.97
2019-05-07T03:39:19.307Z,150160.47
2019-05-07T03:41:48.965Z,150218.84
2019-05-07T03:44:23.976Z,150194.72
2019-05-07T03:47:01.517Z,150222.66
2019-05-07T03:49:27.951Z,150178.22
2019-05-07T03:51:58.472Z,150114.75
2019-05-07T03:54:28.130Z,150072.88
2019-05-07T03:57:02.460Z,150070.33
2019-05-07T03:59:29.237Z,150129.98
2019-05-07T04:01:58.899Z,150080.50
2019-05-07T04:04:28.559Z,150109.67
2019-05-07T04:06:58.207Z,150043.70
2019-05-07T04:09:29.075Z,150081.75
2019-05-07T04:11:58.735Z,150084.31
2019-05-07T04:14:29.923Z,150058.89
2019-05-07T04:17:14.566Z,150099.50
2019-05-07T04:19:32.889Z,150089.38
2019-05-07T04:22:04.258Z,150066.52
2019-05-07T04:24:42.881Z,150122.36
2019-05-07T04:27:23.875Z,150052.58
2019-05-07T04:29:53.167Z,150069.06
2019-05-07T04:32:24.622Z,150122.36
2019-05-07T04:34:55.922Z,150103.31
2019-05-07T04:37:25.589Z,150051.28
2019-05-07T04:39:55.234Z,150112.23
2019-05-07T04:42:25.043Z,150071.63
2019-05-07T04:44:56.028Z,150155.34
2019-05-07T04:47:41.266Z,150080.50
2019-05-07T04:49:57.070Z,150107.12
2019-05-07T04:52:34.027Z,150122.36
2019-05-07T04:55:04.715Z,150174.41
2019-05-07T04:57:34.525Z,150156.66
2019-05-07T05:00:07.022Z,150129.98
2019-05-07T05:02:54.420Z,150161.72
2019-05-07T05:05:25.111Z,150178.22
2019-05-07T05:07:54.838Z,150147.73
2019-05-07T05:10:24.490Z,150135.05
2019-05-07T05:12:54.153Z,150109.67
2019-05-07T05:15:24.830Z,150132.55
2019-05-07T05:17:54.487Z,150248.03
2019-05-07T05:20:25.793Z,150188.41
2019-05-07T05:23:03.993Z,150227.72
2019-05-07T05:25:37.998Z,150206.16
2019-05-07T05:28:07.654Z,150248.03
2019-05-07T05:30:42.441Z,150262.03
2019-05-07T05:33:12.849Z,150218.84
2019-05-07T05:35:43.192Z,150246.78
2019-05-07T05:38:13.071Z,150241.72
2019-05-07T05:40:43.802Z,150289.97
2019-05-07T05:43:19.462Z,150295.03
2019-05-07T05:45:52.880Z,150338.22
2019-05-07T05:48:22.875Z,150363.61
2019-05-07T05:51:05.946Z,150343.30
2019-05-07T05:53:43.176Z,150289.97
2019-05-07T05:56:32.404Z,150310.28
2019-05-07T05:59:27.719Z,150312.78
2019-05-07T06:01:55.077Z,150432.20
2019-05-07T06:04:35.243Z,150480.53
2019-05-07T06:07:11.481Z,150452.58
2019-05-07T06:09:42.106Z,150403.00
2019-05-07T06:12:25.816Z,150424.58
2019-05-07T06:15:09.070Z,150484.34
2019-05-07T06:17:38.581Z,150504.67
2019-05-07T06:20:27.732Z,150540.27
2019-05-07T06:23:15.568Z,150457.66
2019-05-07T06:25:46.938Z,150432.20
2019-05-07T06:28:16.633Z,150549.16
2019-05-07T06:30:46.359Z,150500.88
2019-05-07T06:33:16.025Z,150583.50
2019-05-07T06:35:47.028Z,150653.39
2019-05-07T06:38:16.960Z,150705.52
2019-05-07T06:41:02.664Z,150645.75
2019-05-07T06:43:42.026Z,150644.50
2019-05-07T06:46:12.537Z,150591.12
2019-05-07T06:48:45.920Z,150617.78
2019-05-07T06:51:13.676Z,150624.16
2019-05-07T06:53:43.326Z,150639.42
2019-05-07T06:56:13.001Z,150664.84
2019-05-07T06:58:53.091Z,150728.42
2019-05-07T07:01:24.383Z,150685.17
2019-05-07T07:03:53.881Z,150709.33
2019-05-07T07:06:42.728Z,150741.13
2019-05-07T07:09:14.179Z,150714.41
2019-05-07T07:11:52.808Z,150860.69
2019-05-07T07:14:22.822Z,150752.58
2019-05-07T07:16:52.780Z,150719.47
2019-05-07T07:19:23.324Z,150776.73
2019-05-07T07:21:53.084Z,150766.55
2019-05-07T07:24:22.740Z,150825.06
2019-05-07T07:26:52.924Z,150812.31
2019-05-07T07:29:24.289Z,150858.17
2019-05-07T07:31:55.596Z,150893.80
2019-05-07T07:34:26.725Z,150923.05
2019-05-07T07:37:08.416Z,150956.11
2019-05-07T07:39:33.789Z,150917.97
2019-05-07T07:42:05.088Z,150873.44
2019-05-07T07:44:34.760Z,150930.69
2019-05-07T07:47:04.521Z,150905.20
2019-05-07T07:49:34.315Z,150872.14
2019-05-07T07:52:03.998Z,150879.78
2019-05-07T07:54:33.658Z,150900.12
2019-05-07T07:57:04.964Z,150981.55
2019-05-07T07:59:38.838Z,151009.55
2019-05-07T08:02:15.808Z,150944.66
2019-05-07T08:04:45.478Z,150958.67
2019-05-07T08:07:15.155Z,150928.13
2019-05-07T08:09:44.816Z,151089.72
2019-05-07T08:12:14.508Z,151107.58
2019-05-07T08:14:44.175Z,151024.83
2019-05-07T08:17:13.843Z,150948.47
2019-05-07T08:19:43.590Z,150963.75
2019-05-07T08:22:13.236Z,150771.61
2019-05-07T08:24:42.912Z,150973.91
2019-05-07T08:27:15.153Z,150975.22
2019-05-07T08:29:44.105Z,150965.02
2019-05-07T08:32:27.261Z,151074.45
2019-05-07T08:34:59.355Z,151041.36
2019-05-07T08:37:32.220Z,151106.27
2019-05-07T08:40:03.102Z,151037.55
2019-05-07T08:42:32.837Z,151009.55
2019-05-07T08:45:22.767Z,151061.72
2019-05-07T08:47:59.071Z,151029.91
2019-05-07T08:50:30.283Z,151090.98
2019-05-07T08:52:59.957Z,151147.00
2019-05-07T08:55:29.685Z,151045.19
2019-05-07T08:58:01.813Z,151159.77
2019-05-07T09:00:32.563Z,151214.53
2019-05-07T09:03:02.335Z,151182.66
2019-05-07T09:05:32.447Z,151171.19
2019-05-07T09:08:02.374Z,151325.36
2019-05-07T09:10:32.607Z,151331.69
2019-05-07T09:13:02.809Z,151417.03
2019-05-07T09:15:32.615Z,151149.56
2019-05-07T09:18:02.417Z,151231.09
2019-05-07T09:20:32.312Z,151386.48
2019-05-07T09:23:02.229Z,151418.34
2019-05-07T09:25:33.626Z,151404.30
2019-05-07T09:28:03.357Z,151490.97
2019-05-07T09:30:52.289Z,151303.67
2019-05-07T09:33:23.186Z,151358.47
2019-05-07T09:35:53.625Z,151562.34
2019-05-07T09:38:23.353Z,151476.92
2019-05-07T09:40:53.107Z,151674.53
2019-05-07T09:43:22.771Z,151582.73
2019-05-07T09:45:52.511Z,151359.72
2019-05-07T09:48:22.324Z,151278.22
2019-05-07T09:50:53.025Z,151308.75
2019-05-07T09:53:23.167Z,151317.72
2019-05-07T09:55:52.831Z,151345.73
2019-05-07T09:58:35.759Z,151406.87
2019-05-07T10:00:55.082Z,151403.03
2019-05-07T10:03:25.773Z,151429.77
2019-05-07T10:05:55.422Z,151353.33
2019-05-07T10:08:25.078Z,151357.16
2019-05-07T10:10:54.921Z,151519.00
2019-05-07T10:13:26.215Z,151570.00
2019-05-07T10:15:56.291Z,151465.44
2019-05-07T10:18:26.084Z,151420.86
2019-05-07T10:20:55.981Z,151429.77
2019-05-07T10:23:25.709Z,151498.56
2019-05-07T10:25:55.674Z,151485.83
2019-05-07T10:28:27.032Z,151479.48
2019-05-07T10:30:56.768Z,151434.91
2019-05-07T10:33:26.555Z,151424.69
2019-05-07T10:35:56.214Z,151548.34
2019-05-07T10:38:25.957Z,151649.05
2019-05-07T10:40:55.678Z,151632.47
2019-05-07T10:43:25.571Z,151629.91
2019-05-07T10:46:04.274Z,151623.52
2019-05-07T10:48:35.649Z,151557.27
2019-05-07T10:51:07.425Z,151623.52
2019-05-07T10:53:37.042Z,151610.78
2019-05-07T10:56:06.707Z,151678.36
2019-05-07T10:58:36.371Z,151770.17
2019-05-07T11:01:07.001Z,151844.17
2019-05-07T11:03:36.662Z,151771.44
2019-05-07T11:06:06.541Z,151876.06
2019-05-07T11:08:36.209Z,151865.83
2019-05-07T11:11:05.948Z,151805.88
2019-05-07T11:13:35.681Z,151932.19
2019-05-07T11:16:07.003Z,151956.44
2019-05-07T11:18:52.996Z,151814.84
2019-05-07T11:21:33.311Z,151802.09
2019-05-07T11:24:03.559Z,151812.28
2019-05-07T11:26:33.401Z,151840.34
2019-05-07T11:29:03.075Z,151800.80
2019-05-07T11:31:33.201Z,151844.17
2019-05-07T11:34:03.106Z,151781.61
2019-05-07T11:36:34.442Z,151766.34
2019-05-07T11:39:06.342Z,151882.41
2019-05-07T11:41:37.719Z,151835.25
2019-05-07T11:44:09.000Z,152095.55
2019-05-07T11:46:41.582Z,151962.78
2019-05-07T11:49:13.921Z,152034.25
2019-05-07T11:51:45.234Z,152132.56
2019-05-07T11:54:15.866Z,152040.61
2019-05-07T11:56:45.586Z,151952.61
2019-05-07T11:59:15.268Z,152073.87
2019-05-07T12:01:47.838Z,152034.25
2019-05-07T12:04:17.823Z,151983.20
2019-05-07T12:06:47.555Z,152066.22
2019-05-07T12:09:17.210Z,151992.13
2019-05-07T12:11:47.006Z,151898.98
2019-05-07T12:14:28.184Z,151911.78
2019-05-07T12:16:48.048Z,151862.00
2019-05-07T12:19:17.815Z,151921.97
2019-05-07T12:21:47.520Z,152045.75
2019-05-07T12:24:18.309Z,152008.75
2019-05-07T12:26:47.974Z,151877.31
2019-05-07T12:29:17.630Z,151896.47
2019-05-07T12:31:52.004Z,152110.88
2019-05-07T12:34:25.488Z,152294.69
2019-05-07T12:36:56.008Z,152154.28
2019-05-07T12:39:25.682Z,152215.56
2019-05-07T12:41:56.708Z,152387.97
2019-05-07T12:44:26.358Z,152354.77
2019-05-07T12:46:56.021Z,152354.77
2019-05-07T12:49:25.755Z,152548.94
2019-05-07T12:51:57.052Z,152667.83
2019-05-07T12:54:36.616Z,152642.28
2019-05-07T12:57:05.799Z,152520.83
2019-05-07T12:59:35.464Z,152446.75
2019-05-07T13:02:17.909Z,152361.17
2019-05-07T13:04:37.761Z,152288.34
2019-05-07T13:07:23.973Z,152273.00
2019-05-07T13:09:54.285Z,152287.03
2019-05-07T13:12:23.974Z,152135.13
2019-05-07T13:14:53.626Z,152353.50
2019-05-07T13:17:23.292Z,152460.78
2019-05-07T13:19:53.023Z,152421.17
2019-05-07T13:22:22.691Z,152587.31
2019-05-07T13:24:52.917Z,152334.34
2019-05-07T13:27:22.846Z,153043.87
2019-05-07T13:29:53.213Z,154071.41
2019-05-07T13:32:26.116Z,154587.39
2019-05-07T13:34:55.843Z,154285.69
2019-05-07T13:37:29.997Z,153612.44
2019-05-07T13:40:04.644Z,152894.19
2019-05-07T13:42:45.704Z,153500.97
2019-05-07T13:45:32.382Z,153151.39
2019-05-07T13:48:03.926Z,152811.08
2019-05-07T13:50:33.750Z,153356.20
2019-05-07T13:53:03.492Z,153474.06
2019-05-07T13:55:33.289Z,154546.31
2019-05-07T13:58:03.011Z,155742.09
2019-05-07T14:00:50.575Z,154441.00
2019-05-07T14:03:22.246Z,154260.00
2019-05-07T14:05:51.873Z,153443.36
2019-05-07T14:08:23.122Z,153787.97
2019-05-07T14:10:52.945Z,155193.97
2019-05-07T14:13:23.396Z,156210.89
2019-05-07T14:16:11.906Z,156935.55
2019-05-07T14:18:42.040Z,157224.64
2019-05-07T14:21:13.004Z,156262.44
2019-05-07T14:23:43.307Z,154700.44
2019-05-07T14:26:13.033Z,154461.53
2019-05-07T14:28:42.705Z,153900.83
2019-05-07T14:31:12.459Z,153266.61
2019-05-07T14:33:49.280Z,153189.75
2019-05-07T14:36:24.123Z,153165.44
2019-05-07T14:38:55.318Z,153082.30
2019-05-07T14:41:25.694Z,153138.55
2019-05-07T14:44:09.252Z,152826.39
2019-05-07T14:46:45.655Z,152625.67
2019-05-07T14:49:12.061Z,152652.53
2019-05-07T14:51:41.852Z,152663.98
2019-05-07T14:54:13.199Z,152996.48
2019-05-07T14:56:42.971Z,153184.66
2019-05-07T14:59:12.890Z,153234.59
2019-05-07T15:01:43.066Z,153348.53
2019-05-07T15:04:13.077Z,153351.09
2019-05-07T15:06:43.098Z,153732.89
2019-05-07T15:09:14.414Z,153356.20
2019-05-07T15:11:44.087Z,153137.28
2019-05-07T15:14:13.850Z,153723.94
2019-05-07T15:16:45.088Z,155088.52
2019-05-07T15:19:15.914Z,154695.28
2019-05-07T15:21:46.616Z,154313.91
2019-05-07T15:24:16.339Z,153722.63
2019-05-07T15:26:47.416Z,153296.03
2019-05-07T15:29:17.416Z,153281.97
2019-05-07T15:31:57.117Z,153256.34
2019-05-07T15:34:26.777Z,153950.81
2019-05-07T15:37:15.765Z,155265.94
2019-05-07T15:39:45.437Z,154243.31
2019-05-07T15:42:15.084Z,153504.81
2019-05-07T15:44:44.754Z,153161.59
2019-05-07T15:47:16.132Z,152953.03
2019-05-07T15:49:45.827Z,152924.89
2019-05-07T15:52:23.076Z,152841.75
2019-05-07T15:54:52.786Z,152836.64
2019-05-07T15:57:29.921Z,153083.56
2019-05-07T16:00:06.870Z,153031.09
2019-05-07T16:02:38.141Z,153189.75
2019-05-07T16:05:11.859Z,152992.66
2019-05-07T16:07:42.598Z,153141.13
2019-05-07T16:10:15.065Z,152841.75
2019-05-07T16:12:44.513Z,152458.25
2019-05-07T16:15:14.476Z,152504.22
2019-05-07T16:17:45.785Z,152657.63
2019-05-07T16:20:15.872Z,152589.88
2019-05-07T16:22:55.067Z,152639.70
2019-05-07T16:25:24.509Z,152695.95
2019-05-07T16:27:54.178Z,152651.22
2019-05-07T16:30:24.079Z,152701.09
2019-05-07T16:32:55.406Z,152836.64
2019-05-07T16:35:25.312Z,152731.75
2019-05-07T16:37:58.396Z,152683.17
2019-05-07T16:40:28.035Z,152652.53
2019-05-07T16:42:57.694Z,152560.50
2019-05-07T16:45:28.886Z,152628.25
2019-05-07T16:48:00.481Z,152536.17
2019-05-07T16:50:30.001Z,152493.98
2019-05-07T16:53:00.150Z,152448.00
2019-05-07T16:55:36.899Z,152442.91
2019-05-07T16:58:12.566Z,152423.73
2019-05-07T17:00:43.944Z,152308.77
2019-05-07T17:03:15.243Z,152398.20
2019-05-07T17:05:46.440Z,152396.91
2019-05-07T17:08:18.077Z,152404.56
2019-05-07T17:10:47.887Z,152299.84
2019-05-07T17:13:17.530Z,152238.50
2019-05-07T17:15:57.581Z,152212.98
2019-05-07T17:18:32.429Z,152205.31
2019-05-07T17:21:02.098Z,152145.31
2019-05-07T17:23:43.834Z,152110.88
2019-05-07T17:26:05.681Z,152128.72
2019-05-07T17:28:35.363Z,152031.69
2019-05-07T17:31:05.042Z,152026.59
2019-05-07T17:33:34.688Z,152018.94
2019-05-07T17:36:05.341Z,151969.19
2019-05-07T17:38:34.993Z,151947.47
2019-05-07T17:41:13.726Z,151856.92
2019-05-07T17:43:36.117Z,151845.44
2019-05-07T17:46:05.772Z,151896.47
2019-05-07T17:48:35.438Z,151876.06
2019-05-07T17:51:04.861Z,151814.84
2019-05-07T17:53:34.518Z,151893.91
2019-05-07T17:56:05.716Z,151832.69
2019-05-07T17:58:35.379Z,151822.50
2019-05-07T18:01:05.905Z,151731.89
2019-05-07T18:03:39.915Z,151759.94
2019-05-07T18:06:09.872Z,151808.45
2019-05-07T18:08:39.627Z,151802.09
2019-05-07T18:11:20.315Z,151758.69
2019-05-07T18:13:42.577Z,151641.39
2019-05-07T18:16:16.503Z,151661.78
2019-05-07T18:18:46.165Z,151705.14
2019-05-07T18:21:15.897Z,151687.27
2019-05-07T18:23:45.556Z,151694.92
2019-05-07T18:26:27.196Z,151659.22
2019-05-07T18:28:46.666Z,151674.53
2019-05-07T18:31:19.512Z,151669.44
2019-05-07T18:33:54.307Z,151664.30
2019-05-07T18:36:24.035Z,151641.39
2019-05-07T18:38:53.755Z,151636.25
2019-05-07T18:41:23.471Z,151582.73
2019-05-07T18:43:54.718Z,151576.39
2019-05-07T18:46:25.953Z,151522.83
2019-05-07T18:48:55.617Z,151578.91
2019-05-07T18:51:25.286Z,151562.34
2019-05-07T18:53:54.953Z,151510.09
2019-05-07T18:56:24.658Z,151513.92
2019-05-07T18:58:54.263Z,151482.00
2019-05-07T19:01:25.562Z,151482.00
2019-05-07T19:03:56.096Z,151468.02
2019-05-07T19:06:25.797Z,151447.63
2019-05-07T19:08:55.921Z,151442.55
2019-05-07T19:11:26.820Z,151375.02
2019-05-07T19:13:56.476Z,151406.87
2019-05-07T19:16:26.142Z,151406.87
2019-05-07T19:18:57.567Z,151410.69
2019-05-07T19:21:27.228Z,151394.14
2019-05-07T19:23:56.917Z,151376.28
2019-05-07T19:26:26.579Z,151367.38
2019-05-07T19:28:56.234Z,151352.06
2019-05-07T19:31:25.971Z,151338.08
2019-05-07T19:33:55.672Z,151355.89
2019-05-07T19:36:25.321Z,151303.67
2019-05-07T19:38:54.981Z,151304.94
2019-05-07T19:41:24.636Z,151299.84
2019-05-07T19:43:54.299Z,151223.44
2019-05-07T19:46:23.971Z,151167.38
2019-05-07T19:48:53.655Z,151115.17
2019-05-07T19:51:23.317Z,151143.19
2019-05-07T19:53:52.978Z,151172.50
2019-05-07T19:56:24.321Z,151176.31
2019-05-07T19:58:54.479Z,151164.84
2019-05-07T20:01:25.856Z,151117.73
2019-05-07T20:03:55.524Z,151141.92
2019-05-07T20:06:25.183Z,151167.38
2019-05-07T20:09:08.116Z,151154.64
2019-05-07T20:11:27.863Z,151162.28
2019-05-07T20:13:57.510Z,151177.58
2019-05-07T20:16:27.184Z,151175.02
2019-05-07T20:18:56.835Z,151124.13
2019-05-07T20:21:26.553Z,151113.91
2019-05-07T20:23:56.219Z,151124.13
2019-05-07T20:26:25.939Z,151155.95
2019-05-07T20:28:55.609Z,151108.84
2019-05-07T20:31:25.273Z,151097.38
2019-05-07T20:33:55.010Z,151117.73
2019-05-07T20:36:24.741Z,151120.30
2019-05-07T20:38:54.386Z,151106.27
2019-05-07T20:41:24.082Z,151105.02
2019-05-07T20:43:53.733Z,151089.72
2019-05-07T20:46:23.398Z,151125.37
2019-05-07T20:48:54.194Z,151101.19
2019-05-07T20:51:23.931Z,151070.63
2019-05-07T20:54:12.905Z,151054.09
2019-05-07T20:57:02.402Z,151012.11
2019-05-07T20:59:32.813Z,151073.19
2019-05-07T21:02:02.688Z,151079.58
2019-05-07T21:04:32.993Z,151027.39
2019-05-07T21:07:02.857Z,151047.75
2019-05-07T21:09:32.960Z,151051.56
2019-05-07T21:12:03.972Z,151037.55
2019-05-07T21:14:33.618Z,151001.91
2019-05-07T21:17:04.706Z,151024.83
2019-05-07T21:19:34.363Z,151007.03
2019-05-07T21:22:04.097Z,150975.22
2019-05-07T21:24:33.748Z,150980.30
2019-05-07T21:27:03.413Z,150990.50
2019-05-07T21:29:33.126Z,150972.66
2019-05-07T21:32:03.450Z,151009.55
2019-05-07T21:34:33.103Z,151014.67
2019-05-07T21:37:03.338Z,150976.47
2019-05-07T21:39:33.236Z,150996.83
2019-05-07T21:42:03.016Z,150972.66
2019-05-07T21:44:32.800Z,150942.14
2019-05-07T21:47:03.933Z,150925.56
2019-05-07T21:49:33.743Z,150928.13
2019-05-07T21:52:04.567Z,150943.41
2019-05-07T21:54:38.912Z,150940.84
2019-05-07T21:57:22.419Z,150938.33
2019-05-07T21:59:55.026Z,150930.69
2019-05-07T22:02:26.417Z,150914.16
2019-05-07T22:04:56.082Z,150921.78
2019-05-07T22:07:25.732Z,150895.06
2019-05-07T22:09:55.797Z,150862.00
2019-05-07T22:12:25.446Z,150886.16
2019-05-07T22:14:55.120Z,150867.06
2019-05-07T22:17:24.838Z,150860.69
2019-05-07T22:19:56.201Z,150870.87
2019-05-07T22:22:25.865Z,150874.70
2019-05-07T22:24:55.719Z,150874.70
2019-05-07T22:27:25.406Z,150882.34
2019-05-07T22:29:55.130Z,150882.34
2019-05-07T22:32:52.807Z,150877.22
2019-05-07T22:35:24.099Z,150864.50
2019-05-07T22:37:56.197Z,150851.80
2019-05-07T22:40:25.844Z,150859.44
2019-05-07T22:42:55.512Z,150892.50
2019-05-07T22:45:25.249Z,150825.06
2019-05-07T22:47:54.907Z,150881.03
2019-05-07T22:50:24.567Z,150882.34
2019-05-07T22:52:54.543Z,150878.53
2019-05-07T22:55:24.266Z,150909.03
2019-05-07T22:58:01.501Z,150856.88
2019-05-07T23:00:32.931Z,150837.78
2019-05-07T23:03:02.903Z,150859.44
2019-05-07T23:05:32.632Z,150839.03
2019-05-07T23:08:02.525Z,150844.16
2019-05-07T23:10:33.250Z,150819.94
2019-05-07T23:13:03.048Z,150817.42
2019-05-07T23:15:32.775Z,150818.69
2019-05-07T23:18:04.459Z,150833.95
2019-05-07T23:20:33.939Z,150822.50
2019-05-07T23:23:04.254Z,150844.16
2019-05-07T23:25:33.905Z,150862.00
2019-05-07T23:28:05.237Z,150828.88
2019-05-07T23:30:35.118Z,150869.62
2019-05-07T23:33:04.839Z,150865.81
2019-05-07T23:35:34.505Z,150863.25
2019-05-07T23:38:04.153Z,150859.44
2019-05-07T23:40:38.274Z,150853.09
2019-05-07T23:43:12.147Z,150799.59
2019-05-07T23:45:42.050Z,150799.59
2019-05-07T23:48:12.292Z,150847.97
2019-05-07T23:50:42.157Z,150828.88
2019-05-07T23:53:12.945Z,150825.06
2019-05-07T23:55:42.632Z,150795.78
2019-05-07T23:58:14.137Z,150841.64
